Time;durP1;ratioP1;P1;durP2;ratioP2;P2;SDS_P1;SDS_P2;PMS_P1;PMS_P2;Temp;Humidity;BMP_temperature;BMP_pressure;BME280_temperature;BME280_humidity;BME280_pressure;Samples;Min_cycle;Max_cycle;Signal;HPM_P1;HPM_P2
2023/10/13 00:02:04;;;;;;;6.77;4.37;;;19.30;91.90;;;;;;10448603;28;20217;-79
2023/10/13 00:07:28;;;;;;;10.67;5.17;;;19.40;91.80;;;;;;10459483;28;20201;-78
2023/10/13 00:12:51;;;;;;;5.50;3.83;;;19.30;91.90;;;;;;10461137;28;20229;-79
2023/10/13 00:18:14;;;;;;;4.63;4.23;;;19.30;91.90;;;;;;10466259;28;20299;-78
2023/10/13 00:23:39;;;;;;;7.67;4.40;;;19.30;92.00;;;;;;10462835;28;20679;-79
2023/10/13 00:29:08;;;;;;;3.83;3.53;;;19.20;91.60;;;;;;10446359;28;20225;-79
2023/10/13 00:34:32;;;;;;;4.87;3.87;;;19.10;91.60;;;;;;10444809;28;20186;-78
2023/10/13 00:40:00;;;;;;;8.40;4.40;;;19.10;91.30;;;;;;10455764;28;20300;-77
2023/10/13 00:45:24;;;;;;;6.77;4.40;;;19.00;91.50;;;;;;10449994;28;20275;-77
2023/10/13 00:50:50;;;;;;;7.30;4.37;;;18.90;91.20;;;;;;10453060;28;20591;-79
2023/10/13 00:56:22;;;;;;;5.07;3.87;;;18.90;91.30;;;;;;10454089;28;20221;-77
2023/10/13 01:01:44;;;;;;;8.03;4.00;;;18.80;91.20;;;;;;10459944;28;20669;-78
2023/10/13 01:07:07;;;;;;;4.93;4.03;;;18.80;91.20;;;;;;10475158;28;20206;-78
2023/10/13 01:12:31;;;;;;;7.10;4.30;;;18.70;91.40;;;;;;10471195;23;20236;-76
2023/10/13 01:17:56;;;;;;;4.60;3.93;;;18.70;91.50;;;;;;10466458;28;20229;-76
2023/10/13 01:23:24;;;;;;;5.80;4.13;;;18.70;91.60;;;;;;10408538;28;20209;-76
2023/10/13 01:28:46;;;;;;;6.60;4.20;;;18.60;91.50;;;;;;10396190;28;20352;-76
2023/10/13 01:34:09;;;;;;;5.87;4.03;;;18.60;91.60;;;;;;10413675;28;20202;-76
2023/10/13 01:39:32;;;;;;;9.77;4.87;;;18.50;91.60;;;;;;10436293;28;20225;-76
2023/10/13 01:45:05;;;;;;;5.90;4.10;;;18.50;91.80;;;;;;10422166;28;20203;-76
2023/10/13 01:50:30;;;;;;;8.00;4.80;;;18.50;91.60;;;;;;10422363;28;20229;-76
2023/10/13 01:55:56;;;;;;;5.23;3.80;;;18.50;91.60;;;;;;10411177;28;20653;-76
2023/10/13 02:01:27;;;;;;;6.00;4.10;;;18.40;91.60;;;;;;10415376;28;20214;-76
2023/10/13 02:06:49;;;;;;;5.20;4.73;;;18.40;91.70;;;;;;10400529;28;20668;-76
2023/10/13 02:12:15;;;;;;;5.97;4.83;;;18.30;91.60;;;;;;10405055;28;20248;-76
2023/10/13 02:17:41;;;;;;;5.40;4.47;;;18.30;91.80;;;;;;10364416;28;20257;-76
2023/10/13 02:23:10;;;;;;;5.50;4.40;;;18.30;91.80;;;;;;10395726;28;20203;-76
2023/10/13 02:28:34;;;;;;;5.43;4.60;;;18.20;92.00;;;;;;10372370;28;20221;-76
2023/10/13 02:33:57;;;;;;;4.30;3.93;;;18.20;92.10;;;;;;10397400;28;20202;-76
2023/10/13 02:39:24;;;;;;;6.07;4.03;;;18.20;92.00;;;;;;10414741;28;20215;-76
2023/10/13 02:44:48;;;;;;;5.13;4.33;;;18.10;92.00;;;;;;10417892;28;20253;-77
2023/10/13 02:50:12;;;;;;;8.73;5.30;;;18.10;92.30;;;;;;10407132;28;20237;-76
2023/10/13 02:55:35;;;;;;;5.23;4.77;;;18.10;91.90;;;;;;10431579;28;20212;-76
2023/10/13 03:00:58;;;;;;;5.27;4.77;;;18.10;91.90;;;;;;10435167;28;20209;-76
2023/10/13 03:06:24;;;;;;;7.13;5.33;;;18.10;91.80;;;;;;10431565;28;20564;-76
2023/10/13 03:11:48;;;;;;;5.30;4.20;;;18.10;91.90;;;;;;10432906;28;20219;-76
2023/10/13 03:17:15;;;;;;;7.43;5.20;;;18.00;91.90;;;;;;10448212;28;20224;-76
2023/10/13 03:22:37;;;;;;;6.40;4.70;;;18.00;91.90;;;;;;10421032;28;20210;-77
2023/10/13 03:28:04;;;;;;;7.53;4.57;;;18.00;91.80;;;;;;10442674;28;20194;-77
2023/10/13 03:33:29;;;;;;;6.30;4.80;;;18.00;92.30;;;;;;10436917;28;20214;-77
2023/10/13 03:38:54;;;;;;;6.93;5.10;;;18.00;92.00;;;;;;10431307;28;20276;-76
2023/10/13 03:44:18;;;;;;;6.63;5.57;;;18.00;92.10;;;;;;10431241;28;20256;-76
2023/10/13 03:49:41;;;;;;;6.50;4.57;;;18.00;92.20;;;;;;10405535;28;20368;-76
2023/10/13 03:55:05;;;;;;;5.00;4.37;;;18.00;91.50;;;;;;10429039;28;20563;-76
2023/10/13 04:00:27;;;;;;;5.20;4.70;;;18.00;91.70;;;;;;10399767;28;20210;-77
2023/10/13 04:06:06;;;;;;;16.70;6.00;;;18.00;91.70;;;;;;10440834;28;20725;-76
2023/10/13 04:12:12;;;;;;;6.93;5.13;;;18.00;91.90;;;;;;10418921;28;20221;-77
2023/10/13 04:17:25;;;;;;;6.40;4.83;;;18.00;92.20;;;;;;10426468;28;20664;-76
2023/10/13 04:23:18;;;;;;;5.23;4.77;;;17.90;91.70;;;;;;10433548;28;20275;-76
2023/10/13 04:28:51;;;;;;;6.77;4.90;;;17.90;91.80;;;;;;10440119;28;20218;-76
2023/10/13 04:34:27;;;;;;;5.83;5.37;;;17.90;91.90;;;;;;10406323;28;20210;-76
2023/10/13 04:39:57;;;;;;;5.60;4.73;;;17.90;91.70;;;;;;10439422;28;20229;-77
2023/10/13 04:45:38;;;;;;;9.57;5.50;;;17.80;91.70;;;;;;10436325;28;20285;-76
2023/10/13 04:57:23;;;;;;;4.50;4.10;;;17.70;91.90;;;;;;10436190;28;20194;-76
2023/10/13 05:02:55;;;;;;;5.70;5.20;;;17.70;91.80;;;;;;10407812;28;20764;-77
2023/10/13 05:48:11;;;;;;;6.10;5.37;;;17.70;92.40;;;;;;10437067;28;20675;-77
2023/10/13 06:33:16;;;;;;;7.50;4.67;;;18.30;91.70;;;;;;10441529;28;20225;-77
2023/10/13 06:38:41;;;;;;;5.13;4.73;;;18.40;92.40;;;;;;10425680;28;20218;-77
2023/10/13 06:44:05;;;;;;;6.63;5.17;;;18.50;92.30;;;;;;10417541;28;20209;-78
2023/10/13 06:49:29;;;;;;;5.80;4.13;;;18.60;91.70;;;;;;10427337;28;20248;-77
2023/10/13 06:54:53;;;;;;;6.33;4.53;;;18.70;91.20;;;;;;10406315;28;20213;-77
2023/10/13 07:00:27;;;;;;;6.40;5.70;;;18.80;91.30;;;;;;10403055;28;20213;-78
2023/10/13 07:05:50;;;;;;;4.60;4.20;;;18.80;91.50;;;;;;10415177;28;20194;-78
2023/10/13 07:11:18;;;;;;;7.10;4.77;;;18.80;91.30;;;;;;10501377;22;20321;-80
2023/10/13 07:16:58;;;;;;;4.50;3.80;;;18.80;91.90;;;;;;10542766;28;20558;-81
2023/10/13 07:22:21;;;;;;;6.23;3.80;;;18.90;90.80;;;;;;10576878;28;20692;-81
2023/10/13 07:27:45;;;;;;;6.43;3.87;;;19.00;90.60;;;;;;10568416;28;20208;-81
2023/10/13 07:33:13;;;;;;;7.37;4.70;;;18.90;90.40;;;;;;10539254;28;20281;-81
2023/10/13 07:38:37;;;;;;;12.70;4.27;;;18.90;90.00;;;;;;10544566;28;20204;-81
2023/10/13 07:44:04;;;;;;;4.63;3.83;;;18.90;88.60;;;;;;10533243;28;20192;-81
2023/10/13 07:49:36;;;;;;;4.53;3.30;;;18.90;89.50;;;;;;10541655;28;20224;-81
2023/10/13 07:55:10;;;;;;;8.17;4.83;;;19.00;89.10;;;;;;10549145;28;20188;-81
2023/10/13 08:00:46;;;;;;;6.70;3.83;;;19.00;90.20;;;;;;10564135;28;20768;-79
2023/10/13 08:06:19;;;;;;;5.60;4.43;;;19.10;88.40;;;;;;10553464;28;20243;-82
2023/10/13 08:11:41;;;;;;;5.43;3.73;;;19.10;89.70;;;;;;10556017;28;20227;-82
2023/10/13 08:17:07;;;;;;;6.27;3.83;;;19.10;89.70;;;;;;10558115;28;20202;-79
2023/10/13 08:22:35;;;;;;;5.27;3.10;;;19.20;90.70;;;;;;10579736;28;20216;-82
2023/10/13 08:28:46;;;;;;;7.70;4.07;;;19.20;89.70;;;;;;10548824;28;20254;-82
2023/10/13 08:33:50;;;;;;;5.27;3.57;;;19.20;91.00;;;;;;10560091;28;20214;-81
2023/10/13 08:39:58;;;;;;;4.20;3.80;;;19.20;91.90;;;;;;10562578;28;20234;-81
2023/10/13 08:45:08;;;;;;;3.70;3.40;;;19.20;91.70;;;;;;10538638;28;20286;-81
2023/10/13 08:50:47;;;;;;;10.67;3.80;;;19.30;92.00;;;;;;10559387;28;20235;-82
2023/10/13 08:56:14;;;;;;;5.90;3.50;;;19.30;90.40;;;;;;10546067;28;20196;-81
2023/10/13 09:01:45;;;;;;;7.30;4.40;;;19.40;90.30;;;;;;10543778;28;20212;-81
2023/10/13 09:07:15;;;;;;;3.40;3.10;;;19.50;87.30;;;;;;10559248;28;20684;-81
2023/10/13 09:12:39;;;;;;;5.23;3.30;;;19.70;86.00;;;;;;10564459;28;20308;-82
2023/10/13 09:18:12;;;;;;;7.40;4.67;;;19.90;84.80;;;;;;10559404;28;20283;-83
2023/10/13 09:23:48;;;;;;;3.60;3.30;;;20.20;84.70;;;;;;10544800;28;20250;-82
2023/10/13 09:29:18;;;;;;;5.00;2.93;;;20.40;82.20;;;;;;10556254;28;20232;-81
2023/10/13 09:34:44;;;;;;;5.00;3.20;;;20.60;82.00;;;;;;10576659;28;20227;-79
2023/10/13 09:40:24;;;;;;;14.93;3.53;;;20.80;80.50;;;;;;10554823;28;20212;-82
2023/10/13 09:46:01;;;;;;;5.33;3.20;;;21.00;79.00;;;;;;10546922;28;20559;-82
2023/10/13 09:51:24;;;;;;;5.07;3.60;;;21.30;79.00;;;;;;10559250;28;20785;-82
2023/10/13 09:56:52;;;;;;;5.00;3.60;;;21.50;80.50;;;;;;10550064;28;20189;-82
2023/10/13 10:02:19;;;;;;;5.83;3.53;;;21.70;78.40;;;;;;10551027;28;20200;-80
2023/10/13 10:07:43;;;;;;;3.87;3.10;;;21.90;77.60;;;;;;10558914;28;20200;-80
2023/10/13 10:13:16;;;;;;;3.93;3.53;;;21.90;76.80;;;;;;10550069;28;20228;-81
2023/10/13 10:18:39;;;;;;;6.10;3.17;;;22.00;76.20;;;;;;10556619;28;20287;-80
2023/10/13 10:24:07;;;;;;;4.47;3.00;;;22.10;76.70;;;;;;10559981;28;20192;-80
2023/10/13 10:29:32;;;;;;;5.13;3.93;;;22.10;77.00;;;;;;10556897;28;20246;-80
2023/10/13 10:35:07;;;;;;;4.80;3.10;;;22.10;78.10;;;;;;10575960;28;20256;-80
2023/10/13 10:40:46;;;;;;;5.30;3.13;;;22.20;79.80;;;;;;10579647;28;20329;-80
2023/10/13 10:46:10;;;;;;;7.50;3.57;;;22.20;81.00;;;;;;10557388;28;20197;-78
2023/10/13 10:51:34;;;;;;;2.90;2.70;;;22.30;75.90;;;;;;10567973;28;20513;-79
2023/10/13 10:57:04;;;;;;;4.20;3.00;;;22.40;77.50;;;;;;10560617;28;20191;-81
2023/10/13 11:02:32;;;;;;;3.53;3.23;;;22.30;80.10;;;;;;10548216;28;20740;-80
2023/10/13 11:07:55;;;;;;;11.57;3.90;;;22.30;78.60;;;;;;10551755;28;20661;-80
2023/10/13 11:13:21;;;;;;;6.57;3.33;;;22.30;78.90;;;;;;10539305;28;20216;-80
2023/10/13 11:18:47;;;;;;;4.23;3.70;;;22.30;78.60;;;;;;10565444;28;20192;-80
2023/10/13 11:24:11;;;;;;;4.10;3.33;;;22.30;76.60;;;;;;10575562;28;20196;-80
2023/10/13 11:29:34;;;;;;;7.33;4.67;;;22.40;76.90;;;;;;10569133;28;20555;-81
2023/10/13 11:34:58;;;;;;;4.70;3.27;;;22.40;79.90;;;;;;10556990;28;20247;-81
2023/10/13 11:40:43;;;;;;;10.13;4.00;;;22.30;76.70;;;;;;10551932;28;20306;-80
2023/10/13 11:46:14;;;;;;;7.77;3.70;;;22.30;78.10;;;;;;10553806;28;20244;-81
2023/10/13 11:51:38;;;;;;;3.30;3.00;;;22.30;76.50;;;;;;10573562;28;20269;-80
2023/10/13 11:57:00;;;;;;;7.70;3.63;;;22.30;78.70;;;;;;10556689;28;20193;-80
2023/10/13 12:08:07;;;;;;;3.33;3.03;;;22.50;76.30;;;;;;10553422;28;20276;-81
2023/10/13 12:13:32;;;;;;;6.10;3.77;;;22.40;79.30;;;;;;10542770;28;20203;-80
2023/10/13 12:18:55;;;;;;;9.20;3.43;;;22.50;75.80;;;;;;10563625;28;20665;-81
2023/10/13 12:24:31;;;;;;;3.37;3.00;;;22.50;75.30;;;;;;10569459;28;20265;-81
2023/10/13 12:29:56;;;;;;;8.23;4.90;;;22.60;75.20;;;;;;10552646;28;20223;-81
2023/10/13 12:35:27;;;;;;;9.97;5.10;;;22.70;74.10;;;;;;10562843;28;20251;-81
2023/10/13 12:52:16;;;;;;;5.90;3.53;;;22.70;75.20;;;;;;10582471;28;20215;-81
2023/10/13 12:57:44;;;;;;;6.70;3.53;;;22.90;75.30;;;;;;10562404;28;20208;-80
2023/10/13 13:03:11;;;;;;;6.87;3.00;;;23.00;74.70;;;;;;10540053;28;20212;-80
2023/10/13 13:08:35;;;;;;;6.17;3.53;;;23.00;74.60;;;;;;10563631;28;20570;-81
2023/10/13 13:13:59;;;;;;;3.20;2.90;;;23.00;76.20;;;;;;10506759;22;20321;-79
2023/10/13 13:19:25;;;;;;;8.70;3.33;;;22.90;76.40;;;;;;10482785;28;20201;-79
2023/10/13 13:24:48;;;;;;;4.73;3.17;;;22.80;76.10;;;;;;10475851;28;20280;-79
2023/10/13 13:30:12;;;;;;;4.80;3.60;;;22.80;74.30;;;;;;10450506;28;20274;-79
2023/10/13 13:35:35;;;;;;;3.23;2.93;;;22.90;74.00;;;;;;10491873;28;20193;-79
2023/10/13 13:40:58;;;;;;;3.17;2.53;;;22.90;74.60;;;;;;10477367;28;20221;-79
2023/10/13 13:46:24;;;;;;;4.13;2.90;;;23.00;71.80;;;;;;10466079;28;20209;-79
2023/10/13 13:51:51;;;;;;;3.07;2.80;;;23.00;73.90;;;;;;10472383;28;20226;-79
2023/10/13 13:57:13;;;;;;;12.23;4.10;;;23.10;71.70;;;;;;10471201;28;20190;-79
2023/10/13 14:02:37;;;;;;;3.90;3.50;;;23.10;73.30;;;;;;10479698;28;20221;-79
2023/10/13 14:08:00;;;;;;;7.60;3.20;;;23.00;72.80;;;;;;10475970;28;20205;-79
2023/10/13 14:13:47;;;;;;;3.23;2.93;;;22.90;75.00;;;;;;10463253;28;20247;-79
2023/10/13 14:19:07;;;;;;;3.87;2.90;;;22.90;74.10;;;;;;10481786;28;20302;-79
2023/10/13 14:24:33;;;;;;;3.00;2.80;;;23.00;69.50;;;;;;10463570;28;20221;-79
2023/10/13 14:29:56;;;;;;;4.20;3.27;;;23.10;69.30;;;;;;10486094;28;20225;-79
2023/10/13 14:35:19;;;;;;;6.63;3.57;;;23.20;70.50;;;;;;10492080;28;20240;-79
2023/10/13 14:40:41;;;;;;;5.40;3.07;;;23.20;68.40;;;;;;10465323;28;20228;-79
2023/10/13 14:46:09;;;;;;;6.63;3.40;;;23.30;66.90;;;;;;10470199;28;20193;-79
2023/10/13 14:51:33;;;;;;;7.43;3.10;;;23.40;67.30;;;;;;10497738;28;20216;-79
2023/10/13 14:56:55;;;;;;;6.43;2.87;;;23.40;66.20;;;;;;10499611;28;20784;-79
2023/10/13 15:02:18;;;;;;;3.10;2.80;;;23.30;68.40;;;;;;10461026;28;20221;-79
2023/10/13 15:07:44;;;;;;;5.80;2.73;;;23.30;66.90;;;;;;10497762;28;20194;-79
2023/10/13 15:13:09;;;;;;;4.10;2.73;;;23.30;67.30;;;;;;10472836;28;20251;-79
2023/10/13 15:18:31;;;;;;;2.87;2.47;;;23.20;67.50;;;;;;10491678;28;20190;-78
2023/10/13 15:23:59;;;;;;;2.70;2.30;;;23.30;65.60;;;;;;10482055;28;20255;-79
2023/10/13 15:29:25;;;;;;;3.27;2.70;;;23.20;66.80;;;;;;10483212;28;20198;-79
2023/10/13 15:34:47;;;;;;;4.53;2.47;;;23.20;66.40;;;;;;10484373;28;20308;-79
2023/10/13 15:40:15;;;;;;;5.00;2.90;;;23.10;68.30;;;;;;10474366;28;20562;-79
2023/10/13 15:45:42;;;;;;;2.50;2.10;;;23.10;64.30;;;;;;10478278;28;20210;-79
2023/10/13 15:51:04;;;;;;;5.03;2.63;;;23.10;65.00;;;;;;10499983;28;20248;-79
2023/10/13 15:56:28;;;;;;;7.70;3.87;;;23.10;66.10;;;;;;10458659;28;20625;-79
2023/10/13 16:01:57;;;;;;;3.93;3.63;;;23.10;68.10;;;;;;10459392;28;20220;-78
2023/10/13 16:07:21;;;;;;;3.97;3.00;;;22.90;67.50;;;;;;10492384;28;20204;-79
2023/10/13 16:12:45;;;;;;;3.63;2.47;;;22.80;70.20;;;;;;10460106;28;20241;-78
2023/10/13 16:18:07;;;;;;;4.13;2.83;;;22.70;68.30;;;;;;10483959;28;20206;-79
2023/10/13 16:23:30;;;;;;;5.47;2.70;;;22.50;69.00;;;;;;10452595;28;20214;-78
2023/10/13 16:28:57;;;;;;;3.00;2.40;;;22.40;68.00;;;;;;10485407;28;20194;-78
2023/10/13 16:34:19;;;;;;;2.70;2.50;;;22.30;69.00;;;;;;10464092;28;20217;-79
2023/10/13 16:39:41;;;;;;;2.10;1.90;;;22.30;68.60;;;;;;10480079;28;20233;-78
2023/10/13 16:45:15;;;;;;;2.97;2.40;;;22.20;67.30;;;;;;10459429;28;20201;-78
2023/10/13 16:50:37;;;;;;;7.17;3.33;;;22.20;67.40;;;;;;10472072;28;20279;-78
2023/10/13 16:56:01;;;;;;;9.03;3.20;;;22.10;67.00;;;;;;10457373;28;20248;-79
2023/10/13 17:01:24;;;;;;;4.93;3.23;;;22.10;67.80;;;;;;10492036;28;20228;-78
2023/10/13 17:06:47;;;;;;;2.87;2.67;;;22.00;68.40;;;;;;10451263;28;20202;-79
2023/10/13 17:12:10;;;;;;;3.00;2.73;;;22.00;68.40;;;;;;10480873;28;20540;-78
2023/10/13 17:17:33;;;;;;;2.77;2.57;;;22.00;68.40;;;;;;10486618;28;20625;-79
2023/10/13 17:22:56;;;;;;;3.27;2.50;;;21.90;68.50;;;;;;10497051;28;20227;-79
2023/10/13 17:28:18;;;;;;;3.67;2.50;;;21.90;68.30;;;;;;10473406;28;20206;-78
2023/10/13 17:33:42;;;;;;;3.27;2.97;;;21.80;68.50;;;;;;10498573;28;20717;-78
2023/10/13 17:39:08;;;;;;;3.83;3.50;;;21.70;69.10;;;;;;10474283;28;20203;-78
2023/10/13 17:44:30;;;;;;;3.60;2.90;;;21.70;69.30;;;;;;10475098;28;20185;-79
2023/10/13 17:49:54;;;;;;;4.23;3.00;;;21.70;68.90;;;;;;10513121;28;20229;-78
2023/10/13 17:55:17;;;;;;;3.27;2.97;;;21.70;69.60;;;;;;10494193;28;20214;-79
2023/10/13 18:00:39;;;;;;;6.30;4.03;;;21.60;70.10;;;;;;10469245;28;20225;-79
2023/10/13 18:06:03;;;;;;;6.17;3.77;;;21.60;70.50;;;;;;10508297;28;20201;-78
2023/10/13 18:11:28;;;;;;;4.40;4.00;;;21.60;70.80;;;;;;10497839;28;20563;-79
2023/10/13 18:16:50;;;;;;;4.40;4.00;;;21.60;70.60;;;;;;10482696;28;20295;-78
2023/10/13 18:22:16;;;;;;;4.67;2.90;;;21.60;70.70;;;;;;10470262;28;20304;-78
2023/10/13 18:27:38;;;;;;;5.00;3.03;;;21.70;70.30;;;;;;10495295;28;20655;-78
2023/10/13 18:33:00;;;;;;;4.50;3.10;;;21.70;70.80;;;;;;10484599;28;20249;-79
2023/10/13 18:38:29;;;;;;;5.63;4.10;;;21.70;71.90;;;;;;10468949;28;20251;-78
2023/10/13 18:43:52;;;;;;;6.93;3.10;;;21.70;72.30;;;;;;10503902;28;20217;-78
2023/10/13 18:49:14;;;;;;;4.90;3.57;;;21.70;72.90;;;;;;10484290;28;20201;-78
2023/10/13 18:54:40;;;;;;;6.73;3.73;;;21.60;73.30;;;;;;10471658;28;20217;-78
2023/10/13 19:00:06;;;;;;;5.43;4.43;;;21.60;74.10;;;;;;10486506;28;20209;-78
2023/10/13 19:05:28;;;;;;;5.37;3.07;;;21.50;74.40;;;;;;10515259;28;20220;-78
2023/10/13 19:10:52;;;;;;;4.83;4.07;;;21.40;74.90;;;;;;10487220;28;20398;-78
2023/10/13 19:16:14;;;;;;;8.63;3.13;;;21.40;75.70;;;;;;10521601;23;20232;-81
2023/10/13 19:21:37;;;;;;;4.33;3.57;;;21.40;76.10;;;;;;10511236;28;20575;-80
2023/10/13 19:27:02;;;;;;;4.80;3.00;;;21.40;75.20;;;;;;10503958;28;20248;-81
2023/10/13 19:32:27;;;;;;;7.30;3.70;;;21.30;75.30;;;;;;10519782;28;20216;-79
2023/10/13 19:37:49;;;;;;;4.33;3.70;;;21.30;75.90;;;;;;10519514;28;20213;-81
2023/10/13 19:43:13;;;;;;;4.40;3.73;;;21.20;76.20;;;;;;10514354;28;20403;-82
2023/10/13 19:48:35;;;;;;;3.90;3.40;;;21.20;76.00;;;;;;10541608;28;20224;-82
2023/10/13 19:53:59;;;;;;;6.60;3.63;;;21.20;76.40;;;;;;10509493;28;20213;-81
2023/10/13 19:59:23;;;;;;;4.90;3.13;;;21.20;74.30;;;;;;10535631;28;20204;-80
2023/10/13 20:04:45;;;;;;;5.30;3.27;;;21.10;74.00;;;;;;10497923;28;20217;-77
2023/10/13 20:10:09;;;;;;;3.87;3.33;;;21.10;73.20;;;;;;10528400;28;20211;-79
2023/10/13 20:15:33;;;;;;;4.57;2.93;;;21.10;72.30;;;;;;10532606;28;20302;-79
2023/10/13 20:20:56;;;;;;;7.00;4.00;;;21.20;70.70;;;;;;10514376;28;20200;-80
2023/10/13 20:26:18;;;;;;;6.50;2.57;;;21.20;69.70;;;;;;10498592;28;20212;-79
2023/10/13 20:31:44;;;;;;;4.13;2.70;;;21.20;69.80;;;;;;10520708;28;20205;-80
2023/10/13 20:37:06;;;;;;;4.10;3.27;;;21.30;69.20;;;;;;10512029;28;20630;-80
2023/10/13 20:42:28;;;;;;;3.50;2.60;;;21.30;67.80;;;;;;10526161;28;20280;-81
2023/10/13 20:47:53;;;;;;;7.43;3.43;;;21.30;67.30;;;;;;10507626;28;20220;-81
2023/10/13 20:53:16;;;;;;;3.53;2.70;;;21.30;66.70;;;;;;10534445;28;20235;-82
2023/10/13 20:58:40;;;;;;;2.90;2.27;;;21.30;66.30;;;;;;10521325;28;20208;-81
2023/10/13 21:04:04;;;;;;;3.07;2.50;;;21.30;65.90;;;;;;10515686;28;20209;-81
2023/10/13 21:09:28;;;;;;;2.53;2.33;;;21.30;65.00;;;;;;10521897;28;20211;-80
2023/10/13 21:14:50;;;;;;;2.73;2.10;;;21.30;64.20;;;;;;10520996;28;20289;-82
2023/10/13 21:20:15;;;;;;;3.33;2.43;;;21.30;63.40;;;;;;10516510;28;20679;-82
2023/10/13 21:25:40;;;;;;;3.90;2.47;;;21.40;63.80;;;;;;10516402;28;20228;-81
2023/10/13 21:31:06;;;;;;;3.63;2.47;;;21.40;63.40;;;;;;10515848;28;20596;-81
2023/10/13 21:36:30;;;;;;;5.93;2.50;;;21.40;64.50;;;;;;10527766;28;20231;-81
2023/10/13 21:41:53;;;;;;;5.13;2.53;;;21.30;64.80;;;;;;10520415;28;20599;-80
2023/10/13 21:47:15;;;;;;;3.70;2.70;;;21.20;65.00;;;;;;10523558;28;20248;-81
2023/10/13 21:52:40;;;;;;;3.10;2.80;;;21.20;64.00;;;;;;10524810;28;20216;-81
2023/10/13 21:58:02;;;;;;;4.00;2.80;;;21.30;64.30;;;;;;10520761;28;20220;-82
2023/10/13 22:03:26;;;;;;;4.40;3.20;;;21.30;64.70;;;;;;10522956;28;20580;-81
2023/10/13 22:08:50;;;;;;;3.40;3.10;;;21.30;64.90;;;;;;10514003;28;20838;-80
2023/10/13 22:14:16;;;;;;;6.67;3.10;;;21.30;63.50;;;;;;10513548;28;20232;-79
2023/10/13 22:19:38;;;;;;;4.93;3.40;;;21.30;64.70;;;;;;10520150;28;20313;-82
2023/10/13 22:25:02;;;;;;;5.80;3.60;;;21.30;64.00;;;;;;10519772;28;20593;-82
2023/10/13 22:30:25;;;;;;;4.77;2.60;;;21.30;64.20;;;;;;10513926;28;20213;-80
2023/10/13 22:35:50;;;;;;;3.13;2.83;;;21.40;64.70;;;;;;10531694;28;20242;-79
2023/10/13 22:41:15;;;;;;;2.90;2.70;;;21.40;64.50;;;;;;10517228;28;20265;-80
2023/10/13 22:46:38;;;;;;;6.03;3.40;;;21.50;63.10;;;;;;10513218;28;20710;-79
2023/10/13 22:52:00;;;;;;;4.00;3.10;;;21.60;63.60;;;;;;10505771;28;20197;-80
2023/10/13 22:57:24;;;;;;;5.20;2.50;;;21.70;64.70;;;;;;10511941;28;20213;-79
2023/10/13 23:02:49;;;;;;;3.10;2.90;;;21.70;64.60;;;;;;10512812;28;20185;-81
2023/10/13 23:08:20;;;;;;;3.83;2.80;;;21.70;65.20;;;;;;10520514;28;20224;-80
2023/10/13 23:13:45;;;;;;;4.80;3.67;;;21.70;66.20;;;;;;10521656;28;20301;-81
2023/10/13 23:19:07;;;;;;;4.47;3.83;;;21.80;65.80;;;;;;10526298;28;20204;-82
2023/10/13 23:24:29;;;;;;;4.00;3.70;;;21.80;66.30;;;;;;10520307;28;20208;-80
2023/10/13 23:29:53;;;;;;;3.50;3.20;;;21.80;66.50;;;;;;10521104;28;20211;-81
2023/10/13 23:35:15;;;;;;;3.33;2.87;;;21.90;66.00;;;;;;10509763;28;20232;-81
2023/10/13 23:40:44;;;;;;;4.00;3.00;;;21.90;66.90;;;;;;10508152;28;20582;-81
2023/10/13 23:46:10;;;;;;;4.37;3.80;;;21.90;67.40;;;;;;10519124;28;20227;-82
2023/10/13 23:51:32;;;;;;;3.73;3.30;;;21.90;68.00;;;;;;10518172;28;20208;-82
2023/10/13 23:56:54;;;;;;;4.30;3.00;;;21.80;69.60;;;;;;10522193;28;20232;-82
